createdAt,value
2022-09-10T00:00:40.782Z,1003.26
2022-09-10T00:01:40.855Z,1003.24
2022-09-10T00:02:40.796Z,1003.17
2022-09-10T00:03:40.768Z,1003.18
2022-09-10T00:04:40.735Z,1003.22
2022-09-10T00:05:40.719Z,1003.15
2022-09-10T00:06:40.727Z,1003.16
2022-09-10T00:07:40.708Z,1003.14
2022-09-10T00:08:40.687Z,1003.14
2022-09-10T00:09:40.674Z,1003.13
2022-09-10T00:10:40.664Z,1003.17
2022-09-10T00:11:40.669Z,1003.14
2022-09-10T00:12:40.654Z,1003.16
2022-09-10T00:13:40.638Z,1003.19
2022-09-10T00:14:40.620Z,1003.12
2022-09-10T00:15:40.611Z,1003.14
2022-09-10T00:16:40.599Z,1003.10
2022-09-10T00:17:40.604Z,1003.16
2022-09-10T00:18:40.574Z,1003.09
2022-09-10T00:19:40.589Z,1003.07
2022-09-10T00:20:40.556Z,1003.11
2022-09-10T00:21:40.545Z,1003.12
2022-09-10T00:22:40.546Z,1003.10
2022-09-10T00:23:40.523Z,1003.17
2022-09-10T00:24:40.510Z,1003.13
2022-09-10T00:25:40.502Z,1003.10
2022-09-10T00:26:40.501Z,1003.13
2022-09-10T00:27:40.475Z,1003.13
2022-09-10T00:28:40.473Z,1003.16
2022-09-10T00:29:40.456Z,1003.14
2022-09-10T00:30:40.440Z,1003.15
2022-09-10T00:31:40.443Z,1003.12
2022-09-10T00:32:40.428Z,1003.18
2022-09-10T00:33:40.436Z,1003.24
2022-09-10T00:34:40.395Z,1003.17
2022-09-10T00:35:40.405Z,1003.21
2022-09-10T00:36:40.373Z,1003.22
2022-09-10T00:37:40.370Z,1003.19
2022-09-10T00:38:40.357Z,1003.21
2022-09-10T00:39:40.379Z,1003.24
2022-09-10T00:40:40.330Z,1003.22
2022-09-10T00:41:40.319Z,1003.21
2022-09-10T00:42:40.309Z,1003.24
2022-09-10T00:43:40.299Z,1003.25
2022-09-10T00:44:40.311Z,1003.20
2022-09-10T00:45:40.319Z,1003.26
2022-09-10T00:46:40.271Z,1003.18
2022-09-10T00:47:40.255Z,1003.16
2022-09-10T00:48:40.236Z,1003.22
2022-09-10T00:49:40.248Z,1003.17
2022-09-10T00:50:40.232Z,1003.22
2022-09-10T00:51:40.225Z,1003.17
2022-09-10T00:52:40.231Z,1003.15
2022-09-10T00:53:40.188Z,1003.19
2022-09-10T00:54:40.184Z,1003.22
2022-09-10T00:55:40.197Z,1003.18
2022-09-10T00:56:40.171Z,1003.21
2022-09-10T00:57:40.161Z,1003.18
2022-09-10T00:58:40.244Z,1003.19
2022-09-10T00:59:40.125Z,1003.22
2022-09-10T01:00:40.123Z,1003.16
2022-09-10T01:01:40.138Z,1003.12
2022-09-10T01:02:40.082Z,1003.15
2022-09-10T01:03:40.083Z,1003.16
2022-09-10T01:04:40.059Z,1003.17
2022-09-10T01:05:40.072Z,1003.18
2022-09-10T01:06:40.045Z,1003.23
2022-09-10T01:07:40.054Z,1003.24
2022-09-10T01:08:40.143Z,1003.21
2022-09-10T01:09:40.027Z,1003.21
2022-09-10T01:10:40.009Z,1003.20
2022-09-10T01:11:39.991Z,1003.20
2022-09-10T01:12:39.981Z,1003.28
2022-09-10T01:13:39.966Z,1003.27
2022-09-10T01:14:39.951Z,1003.28
2022-09-10T01:15:39.966Z,1003.28
2022-09-10T01:16:39.928Z,1003.33
2022-09-10T01:17:39.924Z,1003.35
2022-09-10T01:18:40.042Z,1003.34
2022-09-10T01:19:39.899Z,1003.31
2022-09-10T01:20:39.886Z,1003.32
2022-09-10T01:21:39.899Z,1003.33
2022-09-10T01:22:39.859Z,1003.37
2022-09-10T01:23:39.885Z,1003.40
2022-09-10T01:24:39.846Z,1003.35
2022-09-10T01:25:39.836Z,1003.36
2022-09-10T01:26:39.835Z,1003.36
2022-09-10T01:27:39.813Z,1003.38
2022-09-10T01:28:39.890Z,1003.37
2022-09-10T01:29:39.797Z,1003.39
2022-09-10T01:30:39.772Z,1003.36
2022-09-10T01:31:39.846Z,1003.35
2022-09-10T01:32:39.751Z,1003.37
2022-09-10T01:33:39.745Z,1003.33
2022-09-10T01:34:39.759Z,1003.34
2022-09-10T01:35:39.750Z,1003.36
2022-09-10T01:36:39.711Z,1003.37
2022-09-10T01:37:39.707Z,1003.35
2022-09-10T01:38:39.784Z,1003.31
2022-09-10T01:39:39.729Z,1003.31
2022-09-10T01:40:39.687Z,1003.36
2022-09-10T01:41:46.736Z,1003.32
2022-09-10T01:42:39.641Z,1003.40
2022-09-10T01:43:39.662Z,1003.40
2022-09-10T01:44:39.620Z,1003.45
2022-09-10T01:45:39.680Z,1003.37
2022-09-10T01:46:39.603Z,1003.41
2022-09-10T01:47:39.587Z,1003.37
2022-09-10T01:48:39.729Z,1003.35
2022-09-10T01:49:39.619Z,1003.45
2022-09-10T01:50:39.551Z,1003.40
2022-09-10T01:51:39.557Z,1003.40
2022-09-10T01:52:39.533Z,1003.47
2022-09-10T01:53:39.522Z,1003.49
2022-09-10T01:54:39.511Z,1003.46
2022-09-10T01:55:39.532Z,1003.42
2022-09-10T01:56:39.502Z,1003.50
2022-09-10T01:57:39.498Z,1003.50
2022-09-10T01:58:39.596Z,1003.46
2022-09-10T01:59:39.476Z,1003.45
2022-09-10T02:00:39.515Z,1003.43
2022-09-10T02:01:39.432Z,1003.48
2022-09-10T02:02:39.433Z,1003.43
2022-09-10T02:03:39.416Z,1003.40
2022-09-10T02:04:39.399Z,1003.42
2022-09-10T02:05:39.401Z,1003.36
2022-09-10T02:06:39.428Z,1003.41
2022-09-10T02:07:39.375Z,1003.37
2022-09-10T02:08:39.485Z,1003.40
2022-09-10T02:09:39.383Z,1003.37
2022-09-10T02:10:39.328Z,1003.38
2022-09-10T02:11:39.339Z,1003.38
2022-09-10T02:12:39.321Z,1003.42
2022-09-10T02:13:39.303Z,1003.37
2022-09-10T02:14:39.280Z,1003.37
2022-09-10T02:15:39.276Z,1003.38
2022-09-10T02:16:39.275Z,1003.40
2022-09-10T02:17:39.272Z,1003.49
2022-09-10T02:18:39.368Z,1003.41
2022-09-10T02:19:39.234Z,1003.46
2022-09-10T02:20:39.230Z,1003.43
2022-09-10T02:21:39.213Z,1003.44
2022-09-10T02:22:39.192Z,1003.44
2022-09-10T02:23:39.199Z,1003.44
2022-09-10T02:24:39.173Z,1003.39
2022-09-10T02:25:39.169Z,1003.46
2022-09-10T02:26:39.184Z,1003.43
2022-09-10T02:27:39.163Z,1003.44
2022-09-10T02:28:39.237Z,1003.44
2022-09-10T02:29:39.123Z,1003.47
2022-09-10T02:30:39.101Z,1003.46
2022-09-10T02:31:39.173Z,1003.50
2022-09-10T02:32:39.094Z,1003.49
2022-09-10T02:33:39.076Z,1003.43
2022-09-10T02:34:39.068Z,1003.46
2022-09-10T02:35:39.051Z,1003.41
2022-09-10T02:36:39.066Z,1003.41
2022-09-10T02:37:39.032Z,1003.49
2022-09-10T02:38:39.186Z,1003.46
2022-09-10T02:39:39.046Z,1003.43
2022-09-10T02:40:38.995Z,1003.48
2022-09-10T02:41:38.988Z,1003.46
2022-09-10T02:42:38.993Z,1003.52
2022-09-10T02:43:38.985Z,1003.45
2022-09-10T02:44:38.961Z,1003.48
2022-09-10T02:45:38.961Z,1003.50
2022-09-10T02:46:38.940Z,1003.46
2022-09-10T02:47:38.928Z,1003.49
2022-09-10T02:48:38.966Z,1003.43
2022-09-10T02:49:38.896Z,1003.51
2022-09-10T02:50:38.882Z,1003.48
2022-09-10T02:51:38.891Z,1003.49
2022-09-10T02:52:38.871Z,1003.50
2022-09-10T02:53:38.867Z,1003.52
2022-09-10T02:54:38.836Z,1003.51
2022-09-10T02:55:38.828Z,1003.54
2022-09-10T02:56:38.824Z,1003.55
2022-09-10T02:57:38.809Z,1003.52
2022-09-10T02:58:38.871Z,1003.57
2022-09-10T02:59:38.808Z,1003.57
2022-09-10T03:00:38.771Z,1003.56
2022-09-10T03:01:38.821Z,1003.55
2022-09-10T03:02:38.751Z,1003.52
2022-09-10T03:03:38.739Z,1003.55
2022-09-10T03:04:38.729Z,1003.60
2022-09-10T03:05:38.738Z,1003.59
2022-09-10T03:06:38.702Z,1003.57
2022-09-10T03:07:38.693Z,1003.58
2022-09-10T03:08:38.793Z,1003.55
2022-09-10T03:09:38.689Z,1003.58
2022-09-10T03:10:38.680Z,1003.50
2022-09-10T03:11:38.663Z,1003.57
2022-09-10T03:12:38.632Z,1003.55
2022-09-10T03:13:38.645Z,1003.56
2022-09-10T03:14:38.618Z,1003.48
2022-09-10T03:15:38.635Z,1003.52
2022-09-10T03:16:38.644Z,1003.51
2022-09-10T03:17:38.582Z,1003.46
2022-09-10T03:18:38.662Z,1003.50
2022-09-10T03:19:38.563Z,1003.56
2022-09-10T03:20:38.562Z,1003.55
2022-09-10T03:21:38.539Z,1003.45
2022-09-10T03:22:38.523Z,1003.46
2022-09-10T03:23:38.516Z,1003.53
2022-09-10T03:24:38.506Z,1003.59
2022-09-10T03:25:38.535Z,1003.54
2022-09-10T03:26:38.482Z,1003.47
2022-09-10T03:27:38.471Z,1003.51
2022-09-10T03:28:38.658Z,1003.53
2022-09-10T03:29:38.467Z,1003.57
2022-09-10T03:30:38.434Z,1003.57
2022-09-10T03:31:38.508Z,1003.54
2022-09-10T03:32:38.422Z,1003.51
2022-09-10T03:33:38.404Z,1003.54
2022-09-10T03:34:38.396Z,1003.54
2022-09-10T03:35:38.389Z,1003.58
2022-09-10T03:36:38.363Z,1003.51
2022-09-10T03:37:38.379Z,1003.48
2022-09-10T03:38:38.340Z,1003.50
2022-09-10T03:39:38.379Z,1003.56
2022-09-10T03:40:38.323Z,1003.52
2022-09-10T03:41:38.334Z,1003.52
2022-09-10T03:42:38.297Z,1003.45
2022-09-10T03:43:38.300Z,1003.48
2022-09-10T03:44:38.280Z,1003.46
2022-09-10T03:45:38.327Z,1003.54
2022-09-10T03:46:38.255Z,1003.50
2022-09-10T03:47:38.288Z,1003.46
2022-09-10T03:48:38.352Z,1003.50
2022-09-10T03:49:38.230Z,1003.55
2022-09-10T03:50:38.210Z,1003.53
2022-09-10T03:51:38.200Z,1003.50
2022-09-10T03:52:38.196Z,1003.56
2022-09-10T03:53:38.210Z,1003.50
2022-09-10T03:54:38.175Z,1003.53
2022-09-10T03:55:38.159Z,1003.47
2022-09-10T03:56:38.143Z,1003.46
2022-09-10T03:57:38.142Z,1003.46
2022-09-10T03:58:38.244Z,1003.46
2022-09-10T03:59:38.150Z,1003.46
2022-09-10T04:00:38.098Z,1003.47
2022-09-10T04:01:38.106Z,1003.38
2022-09-10T04:02:38.072Z,1003.45
2022-09-10T04:03:38.083Z,1003.41
2022-09-10T04:04:38.062Z,1003.45
2022-09-10T04:05:38.049Z,1003.44
2022-09-10T04:06:38.043Z,1003.45
2022-09-10T04:07:38.047Z,1003.43
2022-09-10T04:08:38.004Z,1003.41
2022-09-10T04:09:38.001Z,1003.36
2022-09-10T04:10:37.982Z,1003.38
2022-09-10T04:11:37.973Z,1003.41
2022-09-10T04:12:37.971Z,1003.40
2022-09-10T04:13:37.962Z,1003.42
2022-09-10T04:14:37.953Z,1003.41
2022-09-10T04:15:37.933Z,1003.42
2022-09-10T04:16:37.970Z,1003.42
2022-09-10T04:17:37.902Z,1003.40
2022-09-10T04:18:37.919Z,1003.42
2022-09-10T04:19:37.909Z,1003.37
2022-09-10T04:20:37.888Z,1003.40
2022-09-10T04:21:37.869Z,1003.40
2022-09-10T04:22:37.850Z,1003.38
2022-09-10T04:23:37.851Z,1003.44
2022-09-10T04:24:37.842Z,1003.42
2022-09-10T04:25:37.829Z,1003.49
2022-09-10T04:26:37.813Z,1003.42
2022-09-10T04:27:37.792Z,1003.48
2022-09-10T04:28:37.786Z,1003.46
2022-09-10T04:29:37.770Z,1003.50
2022-09-10T04:30:37.765Z,1003.50
2022-09-10T04:31:37.798Z,1003.48
2022-09-10T04:32:37.743Z,1003.50
2022-09-10T04:33:37.743Z,1003.54
2022-09-10T04:34:37.741Z,1003.50
2022-09-10T04:35:37.728Z,1003.51
2022-09-10T04:36:37.711Z,1003.50
2022-09-10T04:37:37.698Z,1003.48
2022-09-10T04:38:37.734Z,1003.44
2022-09-10T04:39:37.685Z,1003.51
2022-09-10T04:40:37.654Z,1003.47
2022-09-10T04:41:37.649Z,1003.49
2022-09-10T04:42:37.628Z,1003.51
2022-09-10T04:43:37.647Z,1003.55
2022-09-10T04:44:37.611Z,1003.48
2022-09-10T04:45:37.639Z,1003.50
2022-09-10T04:46:37.586Z,1003.51
2022-09-10T04:47:37.569Z,1003.49
2022-09-10T04:48:37.577Z,1003.50
2022-09-10T04:49:37.560Z,1003.52
2022-09-10T04:50:37.556Z,1003.49
2022-09-10T04:51:37.545Z,1003.51
2022-09-10T04:52:37.526Z,1003.52
2022-09-10T04:53:37.532Z,1003.46
2022-09-10T04:54:37.525Z,1003.49
2022-09-10T04:55:37.479Z,1003.48
2022-09-10T04:56:37.473Z,1003.51
2022-09-10T04:57:37.478Z,1003.49
2022-09-10T04:58:39.189Z,1003.55
2022-09-10T04:59:37.449Z,1003.60
2022-09-10T05:00:37.427Z,1003.52
2022-09-10T05:01:37.423Z,1003.52
2022-09-10T05:02:37.411Z,1003.54
2022-09-10T05:03:37.427Z,1003.52
2022-09-10T05:04:37.399Z,1003.54
2022-09-10T05:05:37.368Z,1003.53
2022-09-10T05:06:37.363Z,1003.49
2022-09-10T05:07:37.365Z,1003.54
2022-09-10T05:08:37.416Z,1003.57
2022-09-10T05:09:37.367Z,1003.55
2022-09-10T05:10:37.317Z,1003.58
2022-09-10T05:11:37.305Z,1003.56
2022-09-10T05:12:37.300Z,1003.59
2022-09-10T05:13:37.278Z,1003.56
2022-09-10T05:14:37.286Z,1003.61
2022-09-10T05:15:37.275Z,1003.54
2022-09-10T05:16:37.285Z,1003.58
2022-09-10T05:17:37.237Z,1003.55
2022-09-10T05:18:37.314Z,1003.59
2022-09-10T05:19:37.219Z,1003.61
2022-09-10T05:20:37.239Z,1003.60
2022-09-10T05:21:37.204Z,1003.58
2022-09-10T05:22:40.426Z,1003.61
2022-09-10T05:23:37.190Z,1003.55
2022-09-10T05:24:37.163Z,1003.62
2022-09-10T05:25:37.158Z,1003.54
2022-09-10T05:26:37.141Z,1003.60
2022-09-10T05:27:37.121Z,1003.63
2022-09-10T05:28:37.208Z,1003.56
2022-09-10T05:29:37.106Z,1003.55
2022-09-10T05:30:37.104Z,1003.60
2022-09-10T05:31:37.133Z,1003.52
2022-09-10T05:32:37.068Z,1003.58
2022-09-10T05:33:37.059Z,1003.64
2022-09-10T05:34:37.054Z,1003.61
2022-09-10T05:35:37.045Z,1003.64
2022-09-10T05:36:37.045Z,1003.63
2022-09-10T05:37:37.012Z,1003.62
2022-09-10T05:38:39.839Z,1003.67
2022-09-10T05:39:37.061Z,1003.66
2022-09-10T05:40:37.003Z,1003.71
2022-09-10T05:41:36.972Z,1003.67
2022-09-10T05:42:36.980Z,1003.66
2022-09-10T05:43:36.944Z,1003.75
2022-09-10T05:44:36.950Z,1003.69
2022-09-10T05:45:36.998Z,1003.70
2022-09-10T05:46:36.926Z,1003.71
2022-09-10T05:47:36.911Z,1003.70
2022-09-10T05:48:41.382Z,1003.73
2022-09-10T05:49:36.889Z,1003.66
2022-09-10T05:50:36.888Z,1003.68
2022-09-10T05:51:36.868Z,1003.70
2022-09-10T05:52:36.851Z,1003.78
2022-09-10T05:53:36.835Z,1003.77
2022-09-10T05:54:36.823Z,1003.76
2022-09-10T05:55:36.833Z,1003.85
2022-09-10T05:56:36.835Z,1003.82
2022-09-10T05:57:36.798Z,1003.83
2022-09-10T05:58:36.899Z,1003.80
2022-09-10T05:59:36.762Z,1003.85
2022-09-10T06:00:36.762Z,1003.81
2022-09-10T06:01:36.744Z,1003.82
2022-09-10T06:02:36.894Z,1003.86
2022-09-10T06:03:36.717Z,1003.82
2022-09-10T06:04:36.722Z,1003.85
2022-09-10T06:05:36.700Z,1003.82
2022-09-10T06:06:36.694Z,1003.83
2022-09-10T06:07:36.682Z,1003.84
2022-09-10T06:08:36.756Z,1003.84
2022-09-10T06:09:36.659Z,1003.88
2022-09-10T06:10:36.642Z,1003.90
2022-09-10T06:11:36.645Z,1003.85
2022-09-10T06:12:36.652Z,1003.88
2022-09-10T06:13:36.613Z,1003.84
2022-09-10T06:14:36.600Z,1003.86
2022-09-10T06:15:36.591Z,1003.87
2022-09-10T06:16:36.670Z,1003.87
2022-09-10T06:17:36.578Z,1003.88
2022-09-10T06:18:36.624Z,1003.88
2022-09-10T06:19:36.542Z,1003.87
2022-09-10T06:20:36.535Z,1003.89
2022-09-10T06:21:36.531Z,1003.90
2022-09-10T06:22:36.512Z,1003.92
2022-09-10T06:23:36.512Z,1003.92
2022-09-10T06:24:36.496Z,1003.91
2022-09-10T06:25:36.476Z,1003.96
2022-09-10T06:26:36.480Z,1003.95
2022-09-10T06:27:36.482Z,1003.99
2022-09-10T06:28:36.476Z,1003.96
2022-09-10T06:29:36.426Z,1003.95
2022-09-10T06:30:36.515Z,1003.98
2022-09-10T06:31:36.429Z,1003.97
2022-09-10T06:32:36.403Z,1004.00
2022-09-10T06:33:36.388Z,1003.98
2022-09-10T06:34:36.392Z,1004.00
2022-09-10T06:35:36.371Z,1004.04
2022-09-10T06:36:36.354Z,1003.98
2022-09-10T06:37:36.338Z,1004.01
2022-09-10T06:38:36.332Z,1004.05
2022-09-10T06:39:36.387Z,1004.06
2022-09-10T06:40:36.317Z,1004.09
2022-09-10T06:41:36.296Z,1004.09
2022-09-10T06:42:36.287Z,1004.07
2022-09-10T06:43:36.299Z,1004.04
2022-09-10T06:44:36.263Z,1004.07
2022-09-10T06:45:36.301Z,1004.13
2022-09-10T06:47:30.523Z,1004.11
2022-09-10T06:48:39.141Z,1004.10
2022-09-10T06:49:36.226Z,1004.11
2022-09-10T06:50:36.213Z,1004.11
2022-09-10T06:51:36.229Z,1004.12
2022-09-10T06:52:36.180Z,1004.16
2022-09-10T06:53:36.160Z,1004.20
2022-09-10T06:54:36.165Z,1004.17
2022-09-10T06:55:36.160Z,1004.16
2022-09-10T06:56:36.146Z,1004.08
2022-09-10T06:57:36.119Z,1004.14
2022-09-10T06:58:36.260Z,1004.12
2022-09-10T06:59:36.111Z,1004.11
2022-09-10T07:00:36.095Z,1004.13
2022-09-10T07:01:36.166Z,1004.11
2022-09-10T07:02:36.071Z,1004.14
2022-09-10T07:03:36.051Z,1004.15
2022-09-10T07:04:36.051Z,1004.16
2022-09-10T07:05:36.032Z,1004.19
2022-09-10T07:06:36.040Z,1004.17
2022-09-10T07:07:36.014Z,1004.14
2022-09-10T07:08:36.036Z,1004.17
2022-09-10T07:09:35.980Z,1004.15
2022-09-10T07:10:35.975Z,1004.19
2022-09-10T07:11:41.205Z,1004.14
2022-09-10T07:12:36.971Z,1004.20
2022-09-10T07:13:35.936Z,1004.14
2022-09-10T07:14:35.925Z,1004.16
2022-09-10T07:15:35.998Z,1004.20
2022-09-10T07:16:35.910Z,1004.24
2022-09-10T07:17:35.908Z,1004.22
2022-09-10T07:18:35.991Z,1004.22
2022-09-10T07:19:35.877Z,1004.22
2022-09-10T07:20:35.864Z,1004.22
2022-09-10T07:21:35.847Z,1004.25
2022-09-10T07:22:35.852Z,1004.21
2022-09-10T07:23:35.841Z,1004.23
2022-09-10T07:24:35.835Z,1004.20
2022-09-10T07:25:35.809Z,1004.24
2022-09-10T07:26:35.800Z,1004.15
2022-09-10T07:27:35.803Z,1004.17
2022-09-10T07:28:35.809Z,1004.20
2022-09-10T07:29:35.765Z,1004.18
2022-09-10T07:30:35.754Z,1004.15
2022-09-10T07:31:35.755Z,1004.18
2022-09-10T07:32:35.750Z,1004.17
2022-09-10T07:33:35.709Z,1004.21
2022-09-10T07:34:35.707Z,1004.19
2022-09-10T07:35:35.694Z,1004.20
2022-09-10T07:36:35.721Z,1004.16
2022-09-10T07:37:35.670Z,1004.22
2022-09-10T07:38:35.764Z,1004.17
2022-09-10T07:39:35.703Z,1004.20
2022-09-10T07:40:35.636Z,1004.24
2022-09-10T07:41:35.634Z,1004.27
2022-09-10T07:42:42.692Z,1004.25
2022-09-10T07:43:35.595Z,1004.23
2022-09-10T07:44:35.589Z,1004.25
2022-09-10T07:45:35.610Z,1004.24
2022-09-10T07:46:35.582Z,1004.21
2022-09-10T07:47:35.585Z,1004.22
2022-09-10T07:48:35.546Z,1004.28
2022-09-10T07:49:35.532Z,1004.25
2022-09-10T07:50:35.523Z,1004.21
2022-09-10T07:51:35.520Z,1004.25
2022-09-10T07:52:35.500Z,1004.30
2022-09-10T07:53:35.526Z,1004.27
2022-09-10T07:54:35.488Z,1004.23
2022-09-10T07:55:35.466Z,1004.26
2022-09-10T07:56:35.473Z,1004.29
2022-09-10T07:57:35.450Z,1004.29
2022-09-10T07:58:35.447Z,1004.26
2022-09-10T07:59:35.435Z,1004.34
2022-09-10T08:00:35.412Z,1004.34
2022-09-10T08:01:35.527Z,1004.30
2022-09-10T08:02:35.408Z,1004.31
2022-09-10T08:03:35.411Z,1004.29
2022-09-10T08:04:37.102Z,1004.28
2022-09-10T08:05:35.362Z,1004.35
2022-09-10T08:06:35.350Z,1004.33
2022-09-10T08:07:35.344Z,1004.31
2022-09-10T08:08:35.470Z,1004.36
2022-09-10T08:09:35.307Z,1004.41
2022-09-10T08:10:35.304Z,1004.37
2022-09-10T08:11:35.313Z,1004.38
2022-09-10T08:12:35.279Z,1004.34
2022-09-10T08:13:35.262Z,1004.42
2022-09-10T08:14:35.260Z,1004.41
2022-09-10T08:15:35.296Z,1004.37
2022-09-10T08:16:35.247Z,1004.38
2022-09-10T08:17:35.222Z,1004.41
2022-09-10T08:18:35.214Z,1004.39
2022-09-10T08:19:35.216Z,1004.45
2022-09-10T08:20:35.191Z,1004.46
2022-09-10T08:21:35.210Z,1004.45
2022-09-10T08:22:35.167Z,1004.45
2022-09-10T08:23:35.808Z,1004.43
2022-09-10T08:24:35.146Z,1004.42
2022-09-10T08:25:35.151Z,1004.55
2022-09-10T08:26:35.133Z,1004.49
2022-09-10T08:27:35.111Z,1004.46
2022-09-10T08:28:35.099Z,1004.49
2022-09-10T08:29:35.083Z,1004.50
2022-09-10T08:30:35.071Z,1004.50
2022-09-10T08:31:35.107Z,1004.51
2022-09-10T08:32:35.052Z,1004.53
2022-09-10T08:33:35.040Z,1004.52
2022-09-10T08:34:35.029Z,1004.57
2022-09-10T08:35:35.033Z,1004.55
2022-09-10T08:36:35.007Z,1004.54
2022-09-10T08:37:35.053Z,1004.59
2022-09-10T08:38:34.989Z,1004.53
2022-09-10T08:39:35.104Z,1004.56
2022-09-10T08:40:34.959Z,1004.59
2022-09-10T08:41:34.952Z,1004.58
2022-09-10T08:42:34.950Z,1004.55
2022-09-10T08:43:34.930Z,1004.63
2022-09-10T08:44:34.945Z,1004.66
2022-09-10T08:45:34.942Z,1004.58
2022-09-10T08:46:34.898Z,1004.57
2022-09-10T08:47:34.894Z,1004.65
2022-09-10T08:48:34.870Z,1004.63
2022-09-10T08:49:34.872Z,1004.63
2022-09-10T08:50:34.881Z,1004.64
2022-09-10T08:51:34.860Z,1004.64
2022-09-10T08:52:34.837Z,1004.68
2022-09-10T08:53:34.817Z,1004.66
2022-09-10T08:54:34.808Z,1004.69
2022-09-10T08:55:34.812Z,1004.71
2022-09-10T08:56:34.784Z,1004.63
2022-09-10T08:57:34.793Z,1004.65
2022-09-10T08:58:34.757Z,1004.73
2022-09-10T08:59:34.759Z,1004.74
2022-09-10T09:00:34.738Z,1004.71
2022-09-10T09:01:34.823Z,1004.75
2022-09-10T09:02:48.419Z,1004.74
2022-09-10T09:03:35.703Z,1004.75
2022-09-10T09:04:34.693Z,1004.83
2022-09-10T09:05:34.688Z,1004.82
2022-09-10T09:06:34.684Z,1004.78
2022-09-10T09:07:34.689Z,1004.77
2022-09-10T09:08:34.659Z,1004.78
2022-09-10T09:09:34.637Z,1004.81
2022-09-10T09:10:34.643Z,1004.85
2022-09-10T09:11:34.622Z,1004.76
2022-09-10T09:12:34.609Z,1004.81
2022-09-10T09:13:34.724Z,1004.78
2022-09-10T09:14:34.580Z,1004.84
2022-09-10T09:15:34.648Z,1004.80
2022-09-10T09:16:34.576Z,1004.78
2022-09-10T09:17:34.550Z,1004.81
2022-09-10T09:18:34.555Z,1004.68
2022-09-10T09:19:34.529Z,1004.77
2022-09-10T09:20:34.518Z,1004.69
2022-09-10T09:21:34.506Z,1004.72
2022-09-10T09:22:39.335Z,1004.66
2022-09-10T09:23:35.514Z,1004.70
2022-09-10T09:24:34.468Z,1004.69
2022-09-10T09:25:34.465Z,1004.67
2022-09-10T09:26:34.446Z,1004.65
2022-09-10T09:27:34.489Z,1004.60
2022-09-10T09:28:34.425Z,1004.68
2022-09-10T09:29:34.427Z,1004.64
2022-09-10T09:30:34.413Z,1004.74
2022-09-10T09:31:34.447Z,1004.69
2022-09-10T09:32:34.385Z,1004.68
2022-09-10T09:33:34.384Z,1004.71
2022-09-10T09:34:34.373Z,1004.71
2022-09-10T09:35:34.352Z,1004.66
2022-09-10T09:36:34.369Z,1004.68
2022-09-10T09:37:34.331Z,1004.68
2022-09-10T09:38:34.332Z,1004.74
2022-09-10T09:39:34.371Z,1004.70
2022-09-10T09:40:34.300Z,1004.64
2022-09-10T09:41:34.288Z,1004.68
2022-09-10T09:42:34.294Z,1004.70
2022-09-10T09:43:34.261Z,1004.73
2022-09-10T09:44:34.274Z,1004.70
2022-09-10T09:45:34.280Z,1004.73
2022-09-10T09:46:34.224Z,1004.66
2022-09-10T09:47:34.215Z,1004.72
2022-09-10T09:48:34.208Z,1004.68
2022-09-10T09:49:34.215Z,1004.65
2022-09-10T09:50:34.178Z,1004.66
2022-09-10T09:51:34.170Z,1004.68
2022-09-10T09:52:34.154Z,1004.66
2022-09-10T09:53:34.158Z,1004.67
2022-09-10T09:55:03.269Z,1004.63
2022-09-10T09:55:35.147Z,1004.64
2022-09-10T09:56:34.116Z,1004.67
2022-09-10T09:57:34.105Z,1004.60
2022-09-10T09:58:34.095Z,1004.61
2022-09-10T09:59:34.106Z,1004.63
2022-09-10T10:00:34.067Z,1004.63
2022-09-10T10:01:34.095Z,1004.72
2022-09-10T10:02:34.133Z,1004.70
2022-09-10T10:03:34.044Z,1004.70
2022-09-10T10:04:34.056Z,1004.76
2022-09-10T10:05:34.013Z,1004.72
2022-09-10T10:06:34.005Z,1004.75
2022-09-10T10:07:34.002Z,1004.73
2022-09-10T10:08:33.979Z,1004.71
2022-09-10T10:09:33.978Z,1004.69
2022-09-10T10:10:33.972Z,1004.66
2022-09-10T10:11:33.973Z,1004.67
2022-09-10T10:12:33.931Z,1004.73
2022-09-10T10:13:33.926Z,1004.73
2022-09-10T10:14:33.926Z,1004.69
2022-09-10T10:15:33.978Z,1004.71
2022-09-10T10:16:33.886Z,1004.68
2022-09-10T10:17:33.880Z,1004.71
2022-09-10T10:18:33.876Z,1004.74
2022-09-10T10:19:33.862Z,1004.76
2022-09-10T10:20:33.868Z,1004.69
2022-09-10T10:21:33.836Z,1004.71
2022-09-10T10:22:33.827Z,1004.65
2022-09-10T10:23:33.820Z,1004.65
2022-09-10T10:24:33.799Z,1004.74
2022-09-10T10:25:33.824Z,1004.71
2022-09-10T10:26:33.784Z,1004.70
2022-09-10T10:27:33.793Z,1004.61
2022-09-10T10:28:33.761Z,1004.61
2022-09-10T10:29:33.748Z,1004.60
2022-09-10T10:30:33.746Z,1004.59
2022-09-10T10:31:33.738Z,1004.64
2022-09-10T10:32:33.712Z,1004.63
2022-09-10T10:33:33.704Z,1004.64
2022-09-10T10:34:33.692Z,1004.63
2022-09-10T10:35:33.698Z,1004.67
2022-09-10T10:36:33.669Z,1004.65
2022-09-10T10:37:33.673Z,1004.68
2022-09-10T10:38:33.648Z,1004.74
2022-09-10T10:39:33.731Z,1004.68
2022-09-10T10:40:33.635Z,1004.60
2022-09-10T10:41:33.617Z,1004.73
2022-09-10T10:42:33.603Z,1004.79
2022-09-10T10:43:33.612Z,1004.79
2022-09-10T10:44:33.582Z,1004.83
2022-09-10T10:45:33.584Z,1004.82
2022-09-10T10:46:33.582Z,1004.75
2022-09-10T10:47:33.551Z,1004.70
2022-09-10T10:48:33.559Z,1004.76
2022-09-10T10:49:33.533Z,1004.70
2022-09-10T10:50:33.524Z,1004.68
2022-09-10T10:51:33.504Z,1004.74
2022-09-10T10:52:33.495Z,1004.65
2022-09-10T10:53:33.484Z,1004.67
2022-09-10T10:54:33.513Z,1004.62
2022-09-10T10:55:33.465Z,1004.71
2022-09-10T10:56:33.472Z,1004.68
2022-09-10T10:57:33.441Z,1004.65
2022-09-10T10:58:33.438Z,1004.69
2022-09-10T10:59:33.442Z,1004.69
2022-09-10T11:00:33.425Z,1004.73
2022-09-10T11:01:33.471Z,1004.68
2022-09-10T11:02:33.477Z,1004.68
2022-09-10T11:03:33.374Z,1004.66
2022-09-10T11:04:33.367Z,1004.70
2022-09-10T11:05:33.377Z,1004.66
2022-09-10T11:06:33.346Z,1004.65
2022-09-10T11:07:33.329Z,1004.61
2022-09-10T11:08:33.326Z,1004.62
2022-09-10T11:09:33.309Z,1004.63
2022-09-10T11:10:33.298Z,1004.64
2022-09-10T11:11:33.327Z,1004.66
2022-09-10T11:12:33.273Z,1004.69
2022-09-10T11:13:33.271Z,1004.65
2022-09-10T11:14:33.271Z,1004.71
2022-09-10T11:15:33.286Z,1004.72
2022-09-10T11:16:33.255Z,1004.69
2022-09-10T11:17:33.221Z,1004.67
2022-09-10T11:18:33.204Z,1004.67
2022-09-10T11:19:33.198Z,1004.71
2022-09-10T11:20:33.186Z,1004.68
2022-09-10T11:21:33.186Z,1004.68
2022-09-10T11:22:33.162Z,1004.68
2022-09-10T11:23:33.154Z,1004.67
2022-09-10T11:24:33.144Z,1004.73
2022-09-10T11:25:33.147Z,1004.76
2022-09-10T11:26:33.140Z,1004.75
2022-09-10T11:27:33.122Z,1004.83
2022-09-10T11:28:33.099Z,1004.76
2022-09-10T11:29:33.089Z,1004.80
2022-09-10T11:30:33.080Z,1004.77
2022-09-10T11:31:33.100Z,1004.80
2022-09-10T11:32:33.055Z,1004.74
2022-09-10T11:33:33.051Z,1004.76
2022-09-10T11:34:33.027Z,1004.74
2022-09-10T11:35:33.022Z,1004.71
2022-09-10T11:36:33.046Z,1004.70
2022-09-10T11:37:33.020Z,1004.68
2022-09-10T11:38:32.987Z,1004.64
2022-09-10T11:39:32.994Z,1004.66
2022-09-10T11:40:32.966Z,1004.67
2022-09-10T11:41:32.991Z,1004.64
2022-09-10T11:42:32.945Z,1004.66
2022-09-10T11:43:32.958Z,1004.63
2022-09-10T11:44:36.355Z,1004.63
2022-09-10T11:45:32.916Z,1004.64
2022-09-10T11:46:32.958Z,1004.63
2022-09-10T11:47:32.933Z,1004.62
2022-09-10T11:48:32.879Z,1004.66
2022-09-10T11:49:32.869Z,1004.61
2022-09-10T11:50:34.863Z,1004.63
2022-09-10T11:51:32.878Z,1004.63
2022-09-10T11:52:32.844Z,1004.61
2022-09-10T11:53:32.823Z,1004.62
2022-09-10T11:54:32.815Z,1004.69
2022-09-10T11:55:32.800Z,1004.70
2022-09-10T11:56:32.803Z,1004.64
2022-09-10T11:57:32.791Z,1004.65
2022-09-10T11:58:32.769Z,1004.72
2022-09-10T11:59:32.763Z,1004.68
2022-09-10T12:00:32.751Z,1004.74
2022-09-10T12:01:32.745Z,1004.65
2022-09-10T12:02:32.753Z,1004.67
2022-09-10T12:03:32.877Z,1004.73
2022-09-10T12:04:35.754Z,1004.65
2022-09-10T12:05:32.695Z,1004.72
2022-09-10T12:06:32.715Z,1004.77